sensor_id;sensor_type;location;lat;lon;timestamp;P1;durP1;ratioP1;P2;durP2;ratioP2
79371;SDS011;68914;51.262;6.802;2023-05-29T00:00:52;7.82;;;2.40;;
79371;SDS011;68914;51.262;6.802;2023-05-29T00:01:52;6.77;;;2.40;;
79371;SDS011;68914;51.262;6.802;2023-05-29T00:02:53;8.15;;;2.55;;
79371;SDS011;68914;51.262;6.802;2023-05-29T00:03:54;6.03;;;2.40;;
79371;SDS011;68914;51.262;6.802;2023-05-29T00:04:55;6.77;;;2.40;;
79371;SDS011;68914;51.262;6.802;2023-05-29T00:05:55;6.13;;;2.33;;
79371;SDS011;68914;51.262;6.802;2023-05-29T00:06:56;6.40;;;2.58;;
79371;SDS011;68914;51.262;6.802;2023-05-29T00:07:57;6.70;;;2.43;;
79371;SDS011;68914;51.262;6.802;2023-05-29T00:08:58;6.18;;;2.30;;
79371;SDS011;68914;51.262;6.802;2023-05-29T00:09:58;6.68;;;2.40;;
79371;SDS011;68914;51.262;6.802;2023-05-29T00:10:59;7.23;;;2.23;;
79371;SDS011;68914;51.262;6.802;2023-05-29T00:12:00;6.05;;;2.33;;
79371;SDS011;68914;51.262;6.802;2023-05-29T00:13:01;6.55;;;2.50;;
79371;SDS011;68914;51.262;6.802;2023-05-29T00:14:02;5.90;;;2.37;;
79371;SDS011;68914;51.262;6.802;2023-05-29T00:15:03;6.65;;;2.28;;
79371;SDS011;68914;51.262;6.802;2023-05-29T00:16:04;7.25;;;2.53;;
79371;SDS011;68914;51.262;6.802;2023-05-29T00:17:06;7.10;;;2.10;;
79371;SDS011;68914;51.262;6.802;2023-05-29T00:18:06;7.28;;;2.58;;
79371;SDS011;68914;51.262;6.802;2023-05-29T00:19:08;7.97;;;2.40;;
79371;SDS011;68914;51.262;6.802;2023-05-29T00:20:09;6.18;;;2.40;;
79371;SDS011;68914;51.262;6.802;2023-05-29T00:21:12;6.38;;;2.55;;
79371;SDS011;68914;51.262;6.802;2023-05-29T00:22:14;6.30;;;2.53;;
79371;SDS011;68914;51.262;6.802;2023-05-29T00:23:14;6.50;;;2.30;;
79371;SDS011;68914;51.262;6.802;2023-05-29T00:24:15;5.68;;;2.25;;
79371;SDS011;68914;51.262;6.802;2023-05-29T00:25:17;6.10;;;2.40;;
79371;SDS011;68914;51.262;6.802;2023-05-29T00:26:18;8.00;;;2.20;;
79371;SDS011;68914;51.262;6.802;2023-05-29T00:27:25;6.70;;;2.35;;
79371;SDS011;68914;51.262;6.802;2023-05-29T00:28:26;7.03;;;2.33;;
79371;SDS011;68914;51.262;6.802;2023-05-29T00:29:26;6.57;;;2.40;;
79371;SDS011;68914;51.262;6.802;2023-05-29T00:30:28;6.68;;;2.25;;
79371;SDS011;68914;51.262;6.802;2023-05-29T00:31:29;6.63;;;2.30;;
79371;SDS011;68914;51.262;6.802;2023-05-29T00:32:31;6.70;;;2.50;;
79371;SDS011;68914;51.262;6.802;2023-05-29T00:33:31;6.53;;;2.70;;
79371;SDS011;68914;51.262;6.802;2023-05-29T00:34:32;6.53;;;2.30;;
79371;SDS011;68914;51.262;6.802;2023-05-29T00:35:33;5.60;;;2.30;;
79371;SDS011;68914;51.262;6.802;2023-05-29T00:36:34;9.33;;;2.57;;
79371;SDS011;68914;51.262;6.802;2023-05-29T00:37:34;6.45;;;2.38;;
79371;SDS011;68914;51.262;6.802;2023-05-29T00:38:35;5.30;;;2.30;;
79371;SDS011;68914;51.262;6.802;2023-05-29T00:39:35;5.93;;;2.45;;
79371;SDS011;68914;51.262;6.802;2023-05-29T00:40:36;7.50;;;2.55;;
79371;SDS011;68914;51.262;6.802;2023-05-29T00:41:37;6.50;;;2.20;;
79371;SDS011;68914;51.262;6.802;2023-05-29T00:42:38;6.97;;;2.67;;
79371;SDS011;68914;51.262;6.802;2023-05-29T00:43:39;6.63;;;2.40;;
79371;SDS011;68914;51.262;6.802;2023-05-29T00:44:39;6.73;;;2.20;;
79371;SDS011;68914;51.262;6.802;2023-05-29T00:45:40;8.10;;;2.40;;
79371;SDS011;68914;51.262;6.802;2023-05-29T00:46:41;7.80;;;2.43;;
79371;SDS011;68914;51.262;6.802;2023-05-29T00:47:41;7.40;;;2.40;;
79371;SDS011;68914;51.262;6.802;2023-05-29T00:48:43;7.35;;;2.65;;
79371;SDS011;68914;51.262;6.802;2023-05-29T00:49:44;6.78;;;2.50;;
79371;SDS011;68914;51.262;6.802;2023-05-29T00:50:45;6.60;;;2.58;;
79371;SDS011;68914;51.262;6.802;2023-05-29T00:51:45;7.00;;;2.57;;
79371;SDS011;68914;51.262;6.802;2023-05-29T00:52:47;7.07;;;2.70;;
79371;SDS011;68914;51.262;6.802;2023-05-29T00:53:47;7.10;;;2.90;;
79371;SDS011;68914;51.262;6.802;2023-05-29T00:54:50;6.57;;;2.40;;
79371;SDS011;68914;51.262;6.802;2023-05-29T00:55:52;7.93;;;2.85;;
79371;SDS011;68914;51.262;6.802;2023-05-29T00:56:53;6.18;;;2.40;;
79371;SDS011;68914;51.262;6.802;2023-05-29T00:57:54;7.37;;;2.67;;
79371;SDS011;68914;51.262;6.802;2023-05-29T00:58:55;7.53;;;2.50;;
79371;SDS011;68914;51.262;6.802;2023-05-29T00:59:57;8.18;;;2.60;;
79371;SDS011;68914;51.262;6.802;2023-05-29T01:00:59;6.55;;;2.20;;
79371;SDS011;68914;51.262;6.802;2023-05-29T01:02:00;7.32;;;2.60;;
79371;SDS011;68914;51.262;6.802;2023-05-29T01:03:02;6.45;;;2.65;;
79371;SDS011;68914;51.262;6.802;2023-05-29T01:04:05;7.32;;;2.58;;
79371;SDS011;68914;51.262;6.802;2023-05-29T01:05:09;8.75;;;2.42;;
79371;SDS011;68914;51.262;6.802;2023-05-29T01:06:09;6.37;;;2.30;;
79371;SDS011;68914;51.262;6.802;2023-05-29T01:07:10;6.22;;;2.30;;
79371;SDS011;68914;51.262;6.802;2023-05-29T01:08:11;8.20;;;2.63;;
79371;SDS011;68914;51.262;6.802;2023-05-29T01:09:12;8.55;;;2.53;;
79371;SDS011;68914;51.262;6.802;2023-05-29T01:10:14;6.78;;;2.67;;
79371;SDS011;68914;51.262;6.802;2023-05-29T01:11:21;6.68;;;2.40;;
79371;SDS011;68914;51.262;6.802;2023-05-29T01:12:32;5.90;;;2.42;;
79371;SDS011;68914;51.262;6.802;2023-05-29T01:13:33;8.32;;;2.70;;
79371;SDS011;68914;51.262;6.802;2023-05-29T01:14:41;7.18;;;2.50;;
79371;SDS011;68914;51.262;6.802;2023-05-29T01:16:48;7.73;;;2.83;;
79371;SDS011;68914;51.262;6.802;2023-05-29T01:18:04;7.90;;;2.75;;
79371;SDS011;68914;51.262;6.802;2023-05-29T01:19:27;8.52;;;2.72;;
79371;SDS011;68914;51.262;6.802;2023-05-29T01:21:00;6.78;;;2.67;;
79371;SDS011;68914;51.262;6.802;2023-05-29T01:22:12;9.15;;;2.70;;
79371;SDS011;68914;51.262;6.802;2023-05-29T01:25:29;6.95;;;2.63;;
79371;SDS011;68914;51.262;6.802;2023-05-29T01:26:41;6.93;;;2.40;;
79371;SDS011;68914;51.262;6.802;2023-05-29T01:27:43;8.13;;;2.80;;
79371;SDS011;68914;51.262;6.802;2023-05-29T01:28:51;8.60;;;2.40;;
79371;SDS011;68914;51.262;6.802;2023-05-29T01:29:53;6.35;;;2.60;;
79371;SDS011;68914;51.262;6.802;2023-05-29T01:30:55;7.88;;;2.42;;
79371;SDS011;68914;51.262;6.802;2023-05-29T01:31:58;8.95;;;2.65;;
79371;SDS011;68914;51.262;6.802;2023-05-29T01:32:59;8.40;;;2.60;;
79371;SDS011;68914;51.262;6.802;2023-05-29T01:34:00;7.85;;;2.35;;
79371;SDS011;68914;51.262;6.802;2023-05-29T01:35:00;6.93;;;2.30;;
79371;SDS011;68914;51.262;6.802;2023-05-29T01:36:01;7.55;;;2.70;;
79371;SDS011;68914;51.262;6.802;2023-05-29T01:37:02;6.90;;;2.63;;
79371;SDS011;68914;51.262;6.802;2023-05-29T01:38:03;10.32;;;2.80;;
79371;SDS011;68914;51.262;6.802;2023-05-29T01:39:04;7.00;;;2.83;;
79371;SDS011;68914;51.262;6.802;2023-05-29T01:40:06;8.15;;;2.65;;
79371;SDS011;68914;51.262;6.802;2023-05-29T01:41:07;8.15;;;2.60;;
79371;SDS011;68914;51.262;6.802;2023-05-29T01:42:08;8.13;;;2.80;;
79371;SDS011;68914;51.262;6.802;2023-05-29T01:43:10;6.80;;;2.58;;
79371;SDS011;68914;51.262;6.802;2023-05-29T01:44:11;8.10;;;2.67;;
79371;SDS011;68914;51.262;6.802;2023-05-29T01:45:13;7.85;;;2.80;;
79371;SDS011;68914;51.262;6.802;2023-05-29T01:46:14;9.43;;;2.70;;
79371;SDS011;68914;51.262;6.802;2023-05-29T01:47:16;6.13;;;2.43;;
79371;SDS011;68914;51.262;6.802;2023-05-29T01:48:17;6.20;;;2.30;;
79371;SDS011;68914;51.262;6.802;2023-05-29T01:49:18;10.00;;;2.80;;
79371;SDS011;68914;51.262;6.802;2023-05-29T01:50:19;6.18;;;2.22;;
79371;SDS011;68914;51.262;6.802;2023-05-29T01:51:23;6.90;;;2.45;;
79371;SDS011;68914;51.262;6.802;2023-05-29T01:52:24;7.33;;;2.23;;
79371;SDS011;68914;51.262;6.802;2023-05-29T01:53:24;8.75;;;2.58;;
79371;SDS011;68914;51.262;6.802;2023-05-29T01:54:25;8.68;;;2.60;;
79371;SDS011;68914;51.262;6.802;2023-05-29T01:55:26;8.20;;;2.67;;
79371;SDS011;68914;51.262;6.802;2023-05-29T01:56:27;7.22;;;2.45;;
79371;SDS011;68914;51.262;6.802;2023-05-29T01:57:29;7.65;;;2.60;;
79371;SDS011;68914;51.262;6.802;2023-05-29T01:58:30;7.80;;;2.65;;
79371;SDS011;68914;51.262;6.802;2023-05-29T01:59:32;8.32;;;3.10;;
79371;SDS011;68914;51.262;6.802;2023-05-29T02:00:33;7.90;;;2.80;;
79371;SDS011;68914;51.262;6.802;2023-05-29T02:01:35;8.73;;;3.13;;
79371;SDS011;68914;51.262;6.802;2023-05-29T02:02:39;9.52;;;3.00;;
79371;SDS011;68914;51.262;6.802;2023-05-29T02:03:40;7.53;;;2.60;;
79371;SDS011;68914;51.262;6.802;2023-05-29T02:04:41;7.28;;;2.63;;
79371;SDS011;68914;51.262;6.802;2023-05-29T02:05:42;8.20;;;2.72;;
79371;SDS011;68914;51.262;6.802;2023-05-29T02:06:42;8.47;;;2.83;;
79371;SDS011;68914;51.262;6.802;2023-05-29T02:07:43;10.18;;;2.75;;
79371;SDS011;68914;51.262;6.802;2023-05-29T02:08:44;9.30;;;2.55;;
79371;SDS011;68914;51.262;6.802;2023-05-29T02:09:45;8.70;;;2.40;;
79371;SDS011;68914;51.262;6.802;2023-05-29T02:10:46;7.93;;;2.75;;
79371;SDS011;68914;51.262;6.802;2023-05-29T02:11:47;7.90;;;2.80;;
79371;SDS011;68914;51.262;6.802;2023-05-29T02:12:48;7.60;;;2.70;;
79371;SDS011;68914;51.262;6.802;2023-05-29T02:13:49;8.60;;;2.67;;
79371;SDS011;68914;51.262;6.802;2023-05-29T02:14:52;7.55;;;2.70;;
79371;SDS011;68914;51.262;6.802;2023-05-29T02:15:52;9.07;;;2.70;;
79371;SDS011;68914;51.262;6.802;2023-05-29T02:16:53;7.97;;;2.65;;
79371;SDS011;68914;51.262;6.802;2023-05-29T02:17:54;9.55;;;2.72;;
79371;SDS011;68914;51.262;6.802;2023-05-29T02:18:55;9.73;;;2.67;;
79371;SDS011;68914;51.262;6.802;2023-05-29T02:19:56;9.55;;;2.55;;
79371;SDS011;68914;51.262;6.802;2023-05-29T02:20:56;9.25;;;2.75;;
79371;SDS011;68914;51.262;6.802;2023-05-29T02:21:57;8.57;;;2.50;;
79371;SDS011;68914;51.262;6.802;2023-05-29T02:22:58;8.02;;;2.80;;
79371;SDS011;68914;51.262;6.802;2023-05-29T02:23:59;7.10;;;2.63;;
79371;SDS011;68914;51.262;6.802;2023-05-29T02:24:59;8.90;;;2.70;;
79371;SDS011;68914;51.262;6.802;2023-05-29T02:26:00;9.20;;;2.85;;
79371;SDS011;68914;51.262;6.802;2023-05-29T02:27:02;9.77;;;2.78;;
79371;SDS011;68914;51.262;6.802;2023-05-29T02:28:03;7.80;;;2.90;;
79371;SDS011;68914;51.262;6.802;2023-05-29T02:29:04;10.25;;;2.80;;
79371;SDS011;68914;51.262;6.802;2023-05-29T02:30:07;8.47;;;2.60;;
79371;SDS011;68914;51.262;6.802;2023-05-29T02:31:08;7.60;;;2.67;;
79371;SDS011;68914;51.262;6.802;2023-05-29T02:32:10;10.13;;;3.33;;
79371;SDS011;68914;51.262;6.802;2023-05-29T02:33:12;10.95;;;2.83;;
79371;SDS011;68914;51.262;6.802;2023-05-29T02:34:13;9.45;;;2.60;;
79371;SDS011;68914;51.262;6.802;2023-05-29T02:35:13;8.77;;;2.77;;
79371;SDS011;68914;51.262;6.802;2023-05-29T02:36:15;12.20;;;2.97;;
79371;SDS011;68914;51.262;6.802;2023-05-29T02:37:16;9.35;;;2.83;;
79371;SDS011;68914;51.262;6.802;2023-05-29T02:38:17;7.28;;;2.60;;
79371;SDS011;68914;51.262;6.802;2023-05-29T02:39:18;12.80;;;3.03;;
79371;SDS011;68914;51.262;6.802;2023-05-29T02:40:19;9.70;;;2.47;;
79371;SDS011;68914;51.262;6.802;2023-05-29T02:41:21;10.38;;;2.42;;
79371;SDS011;68914;51.262;6.802;2023-05-29T02:42:21;9.10;;;2.35;;
79371;SDS011;68914;51.262;6.802;2023-05-29T02:43:22;11.57;;;2.90;;
79371;SDS011;68914;51.262;6.802;2023-05-29T02:44:23;10.13;;;2.40;;
79371;SDS011;68914;51.262;6.802;2023-05-29T02:45:25;7.63;;;2.38;;
79371;SDS011;68914;51.262;6.802;2023-05-29T02:46:27;11.07;;;2.40;;
79371;SDS011;68914;51.262;6.802;2023-05-29T02:47:28;11.35;;;2.50;;
79371;SDS011;68914;51.262;6.802;2023-05-29T02:48:31;9.45;;;2.30;;
79371;SDS011;68914;51.262;6.802;2023-05-29T02:49:31;10.87;;;2.50;;
79371;SDS011;68914;51.262;6.802;2023-05-29T02:50:32;9.38;;;2.40;;
79371;SDS011;68914;51.262;6.802;2023-05-29T02:51:33;6.70;;;2.00;;
79371;SDS011;68914;51.262;6.802;2023-05-29T02:52:34;10.57;;;2.37;;
79371;SDS011;68914;51.262;6.802;2023-05-29T02:53:36;9.75;;;2.40;;
79371;SDS011;68914;51.262;6.802;2023-05-29T02:54:37;9.25;;;2.88;;
79371;SDS011;68914;51.262;6.802;2023-05-29T02:55:38;9.23;;;2.60;;
79371;SDS011;68914;51.262;6.802;2023-05-29T02:56:39;10.20;;;2.30;;
79371;SDS011;68914;51.262;6.802;2023-05-29T02:57:40;9.10;;;2.40;;
79371;SDS011;68914;51.262;6.802;2023-05-29T02:58:41;8.45;;;2.20;;
79371;SDS011;68914;51.262;6.802;2023-05-29T02:59:42;9.13;;;2.38;;
79371;SDS011;68914;51.262;6.802;2023-05-29T03:00:44;8.02;;;1.95;;
79371;SDS011;68914;51.262;6.802;2023-05-29T03:01:46;9.07;;;2.50;;
79371;SDS011;68914;51.262;6.802;2023-05-29T03:02:48;10.27;;;2.50;;
79371;SDS011;68914;51.262;6.802;2023-05-29T03:03:49;10.47;;;2.20;;
79371;SDS011;68914;51.262;6.802;2023-05-29T03:04:49;9.02;;;2.03;;
79371;SDS011;68914;51.262;6.802;2023-05-29T03:05:51;8.52;;;2.17;;
79371;SDS011;68914;51.262;6.802;2023-05-29T03:06:52;15.87;;;2.50;;
79371;SDS011;68914;51.262;6.802;2023-05-29T03:07:53;8.90;;;2.00;;
79371;SDS011;68914;51.262;6.802;2023-05-29T03:08:54;10.82;;;2.30;;
79371;SDS011;68914;51.262;6.802;2023-05-29T03:09:54;8.75;;;2.30;;
79371;SDS011;68914;51.262;6.802;2023-05-29T03:10:55;9.27;;;1.95;;
79371;SDS011;68914;51.262;6.802;2023-05-29T03:11:57;9.93;;;2.15;;
79371;SDS011;68914;51.262;6.802;2023-05-29T03:12:57;10.93;;;2.50;;
79371;SDS011;68914;51.262;6.802;2023-05-29T03:13:58;11.70;;;2.28;;
79371;SDS011;68914;51.262;6.802;2023-05-29T03:14:59;12.80;;;2.35;;
79371;SDS011;68914;51.262;6.802;2023-05-29T03:16:02;9.93;;;2.17;;
79371;SDS011;68914;51.262;6.802;2023-05-29T03:17:08;9.98;;;2.28;;
79371;SDS011;68914;51.262;6.802;2023-05-29T03:18:09;13.50;;;2.50;;
79371;SDS011;68914;51.262;6.802;2023-05-29T03:19:10;11.82;;;2.45;;
79371;SDS011;68914;51.262;6.802;2023-05-29T03:20:11;8.10;;;2.20;;
79371;SDS011;68914;51.262;6.802;2023-05-29T03:21:12;8.80;;;2.40;;
79371;SDS011;68914;51.262;6.802;2023-05-29T03:22:13;11.57;;;2.50;;
79371;SDS011;68914;51.262;6.802;2023-05-29T03:23:15;10.27;;;2.40;;
79371;SDS011;68914;51.262;6.802;2023-05-29T03:24:16;8.27;;;2.10;;
79371;SDS011;68914;51.262;6.802;2023-05-29T03:25:18;7.85;;;1.92;;
79371;SDS011;68914;51.262;6.802;2023-05-29T03:26:19;8.45;;;2.10;;
79371;SDS011;68914;51.262;6.802;2023-05-29T03:27:22;9.38;;;2.17;;
79371;SDS011;68914;51.262;6.802;2023-05-29T03:28:32;10.45;;;2.50;;
79371;SDS011;68914;51.262;6.802;2023-05-29T03:29:36;11.50;;;1.98;;
79371;SDS011;68914;51.262;6.802;2023-05-29T03:30:37;8.82;;;2.17;;
79371;SDS011;68914;51.262;6.802;2023-05-29T03:31:38;10.10;;;2.10;;
79371;SDS011;68914;51.262;6.802;2023-05-29T03:32:39;10.27;;;2.15;;
79371;SDS011;68914;51.262;6.802;2023-05-29T03:33:41;12.32;;;2.65;;
79371;SDS011;68914;51.262;6.802;2023-05-29T03:35:14;10.45;;;2.20;;
79371;SDS011;68914;51.262;6.802;2023-05-29T03:36:17;11.63;;;2.40;;
79371;SDS011;68914;51.262;6.802;2023-05-29T03:37:18;15.35;;;2.50;;
79371;SDS011;68914;51.262;6.802;2023-05-29T03:38:21;13.17;;;2.90;;
79371;SDS011;68914;51.262;6.802;2023-05-29T03:39:22;12.98;;;2.30;;
79371;SDS011;68914;51.262;6.802;2023-05-29T03:40:23;11.52;;;2.35;;
79371;SDS011;68914;51.262;6.802;2023-05-29T03:41:24;10.50;;;2.10;;
79371;SDS011;68914;51.262;6.802;2023-05-29T03:42:27;8.73;;;2.38;;
79371;SDS011;68914;51.262;6.802;2023-05-29T03:43:28;11.10;;;3.17;;
79371;SDS011;68914;51.262;6.802;2023-05-29T03:44:29;9.18;;;2.42;;
79371;SDS011;68914;51.262;6.802;2023-05-29T03:45:32;11.13;;;2.40;;
79371;SDS011;68914;51.262;6.802;2023-05-29T03:46:33;12.02;;;2.10;;
79371;SDS011;68914;51.262;6.802;2023-05-29T03:47:34;10.90;;;2.50;;
79371;SDS011;68914;51.262;6.802;2023-05-29T03:48:35;12.88;;;2.50;;
79371;SDS011;68914;51.262;6.802;2023-05-29T03:49:36;10.50;;;2.60;;
79371;SDS011;68914;51.262;6.802;2023-05-29T03:50:37;12.55;;;2.20;;
79371;SDS011;68914;51.262;6.802;2023-05-29T03:51:38;11.00;;;2.03;;
79371;SDS011;68914;51.262;6.802;2023-05-29T03:52:39;8.32;;;2.13;;
79371;SDS011;68914;51.262;6.802;2023-05-29T03:53:40;8.52;;;2.20;;
79371;SDS011;68914;51.262;6.802;2023-05-29T03:54:42;9.65;;;2.28;;
79371;SDS011;68914;51.262;6.802;2023-05-29T03:55:45;9.95;;;2.50;;
79371;SDS011;68914;51.262;6.802;2023-05-29T03:56:45;8.50;;;2.00;;
79371;SDS011;68914;51.262;6.802;2023-05-29T03:57:48;8.77;;;2.00;;
79371;SDS011;68914;51.262;6.802;2023-05-29T03:58:50;11.05;;;2.50;;
79371;SDS011;68914;51.262;6.802;2023-05-29T03:59:51;10.60;;;2.30;;
79371;SDS011;68914;51.262;6.802;2023-05-29T04:00:52;11.95;;;2.10;;
79371;SDS011;68914;51.262;6.802;2023-05-29T04:01:54;10.13;;;2.25;;
79371;SDS011;68914;51.262;6.802;2023-05-29T04:02:55;9.80;;;2.17;;
79371;SDS011;68914;51.262;6.802;2023-05-29T04:03:56;10.68;;;2.20;;
79371;SDS011;68914;51.262;6.802;2023-05-29T04:04:57;9.48;;;2.10;;
79371;SDS011;68914;51.262;6.802;2023-05-29T04:05:58;8.68;;;2.60;;
79371;SDS011;68914;51.262;6.802;2023-05-29T04:06:59;9.60;;;1.90;;
79371;SDS011;68914;51.262;6.802;2023-05-29T04:08:00;12.05;;;2.10;;
79371;SDS011;68914;51.262;6.802;2023-05-29T04:09:01;9.02;;;2.15;;
79371;SDS011;68914;51.262;6.802;2023-05-29T04:10:03;10.77;;;2.45;;
79371;SDS011;68914;51.262;6.802;2023-05-29T04:11:04;13.98;;;2.83;;
79371;SDS011;68914;51.262;6.802;2023-05-29T04:12:05;11.27;;;2.50;;
79371;SDS011;68914;51.262;6.802;2023-05-29T04:13:08;12.02;;;2.10;;
79371;SDS011;68914;51.262;6.802;2023-05-29T04:14:08;9.57;;;2.23;;
79371;SDS011;68914;51.262;6.802;2023-05-29T04:15:09;9.52;;;2.20;;
79371;SDS011;68914;51.262;6.802;2023-05-29T04:16:10;12.63;;;2.28;;
79371;SDS011;68914;51.262;6.802;2023-05-29T04:17:12;11.18;;;2.20;;
79371;SDS011;68914;51.262;6.802;2023-05-29T04:18:13;13.03;;;2.77;;
79371;SDS011;68914;51.262;6.802;2023-05-29T04:19:13;10.87;;;2.30;;
79371;SDS011;68914;51.262;6.802;2023-05-29T04:20:14;11.38;;;2.35;;
79371;SDS011;68914;51.262;6.802;2023-05-29T04:21:16;9.13;;;2.28;;
79371;SDS011;68914;51.262;6.802;2023-05-29T04:22:17;12.38;;;2.28;;
79371;SDS011;68914;51.262;6.802;2023-05-29T04:23:18;11.30;;;2.13;;
79371;SDS011;68914;51.262;6.802;2023-05-29T04:24:18;10.93;;;2.43;;
79371;SDS011;68914;51.262;6.802;2023-05-29T04:25:19;12.43;;;2.30;;
79371;SDS011;68914;51.262;6.802;2023-05-29T04:26:21;13.07;;;2.42;;
79371;SDS011;68914;51.262;6.802;2023-05-29T04:27:25;10.23;;;2.50;;
79371;SDS011;68914;51.262;6.802;2023-05-29T04:28:27;10.75;;;2.10;;
79371;SDS011;68914;51.262;6.802;2023-05-29T04:29:28;11.13;;;2.40;;
79371;SDS011;68914;51.262;6.802;2023-05-29T04:30:30;11.10;;;2.10;;
79371;SDS011;68914;51.262;6.802;2023-05-29T04:31:33;13.10;;;2.30;;
79371;SDS011;68914;51.262;6.802;2023-05-29T04:32:37;13.00;;;2.53;;
79371;SDS011;68914;51.262;6.802;2023-05-29T04:33:38;10.15;;;2.22;;
79371;SDS011;68914;51.262;6.802;2023-05-29T04:34:39;11.98;;;2.13;;
79371;SDS011;68914;51.262;6.802;2023-05-29T04:35:41;10.90;;;2.17;;
79371;SDS011;68914;51.262;6.802;2023-05-29T04:36:45;14.05;;;2.30;;
79371;SDS011;68914;51.262;6.802;2023-05-29T04:37:47;11.10;;;2.10;;
79371;SDS011;68914;51.262;6.802;2023-05-29T04:38:48;10.17;;;2.23;;
79371;SDS011;68914;51.262;6.802;2023-05-29T04:39:51;10.98;;;2.30;;
79371;SDS011;68914;51.262;6.802;2023-05-29T04:40:57;14.70;;;2.85;;
79371;SDS011;68914;51.262;6.802;2023-05-29T04:41:59;12.48;;;2.60;;
79371;SDS011;68914;51.262;6.802;2023-05-29T04:43:00;10.85;;;2.63;;
79371;SDS011;68914;51.262;6.802;2023-05-29T04:44:07;10.75;;;2.20;;
79371;SDS011;68914;51.262;6.802;2023-05-29T04:45:19;12.98;;;2.22;;
79371;SDS011;68914;51.262;6.802;2023-05-29T04:46:22;9.82;;;2.13;;
79371;SDS011;68914;51.262;6.802;2023-05-29T04:47:24;10.98;;;2.20;;
79371;SDS011;68914;51.262;6.802;2023-05-29T04:48:25;12.50;;;2.30;;
79371;SDS011;68914;51.262;6.802;2023-05-29T04:49:26;10.63;;;2.33;;
79371;SDS011;68914;51.262;6.802;2023-05-29T04:50:28;9.98;;;2.22;;
79371;SDS011;68914;51.262;6.802;2023-05-29T04:51:32;14.77;;;2.28;;
79371;SDS011;68914;51.262;6.802;2023-05-29T04:52:33;11.87;;;2.57;;
79371;SDS011;68914;51.262;6.802;2023-05-29T04:53:33;12.52;;;2.38;;
79371;SDS011;68914;51.262;6.802;2023-05-29T04:54:34;8.70;;;2.00;;
79371;SDS011;68914;51.262;6.802;2023-05-29T04:55:36;10.85;;;2.10;;
79371;SDS011;68914;51.262;6.802;2023-05-29T04:56:37;10.47;;;2.10;;
79371;SDS011;68914;51.262;6.802;2023-05-29T04:57:41;14.13;;;3.10;;
79371;SDS011;68914;51.262;6.802;2023-05-29T04:58:43;10.98;;;2.10;;
79371;SDS011;68914;51.262;6.802;2023-05-29T04:59:44;12.00;;;2.35;;
79371;SDS011;68914;51.262;6.802;2023-05-29T05:00:46;9.18;;;2.13;;
79371;SDS011;68914;51.262;6.802;2023-05-29T05:01:48;12.13;;;1.80;;
79371;SDS011;68914;51.262;6.802;2023-05-29T05:02:49;9.00;;;2.15;;
79371;SDS011;68914;51.262;6.802;2023-05-29T05:03:50;11.13;;;2.13;;
79371;SDS011;68914;51.262;6.802;2023-05-29T05:04:50;11.73;;;2.28;;
79371;SDS011;68914;51.262;6.802;2023-05-29T05:05:51;9.82;;;2.60;;
79371;SDS011;68914;51.262;6.802;2023-05-29T05:06:53;11.52;;;2.22;;
79371;SDS011;68914;51.262;6.802;2023-05-29T05:07:53;14.00;;;2.20;;
79371;SDS011;68914;51.262;6.802;2023-05-29T05:08:54;9.82;;;2.15;;
79371;SDS011;68914;51.262;6.802;2023-05-29T05:09:55;11.43;;;2.20;;
79371;SDS011;68914;51.262;6.802;2023-05-29T05:11:00;12.55;;;2.63;;
79371;SDS011;68914;51.262;6.802;2023-05-29T05:12:01;10.50;;;2.08;;
79371;SDS011;68914;51.262;6.802;2023-05-29T05:13:03;14.65;;;2.42;;
79371;SDS011;68914;51.262;6.802;2023-05-29T05:14:05;12.13;;;2.75;;
79371;SDS011;68914;51.262;6.802;2023-05-29T05:15:06;9.83;;;2.50;;
79371;SDS011;68914;51.262;6.802;2023-05-29T05:16:08;12.13;;;2.63;;
79371;SDS011;68914;51.262;6.802;2023-05-29T05:17:11;7.90;;;2.05;;
79371;SDS011;68914;51.262;6.802;2023-05-29T05:18:12;14.57;;;2.40;;
79371;SDS011;68914;51.262;6.802;2023-05-29T05:19:14;12.73;;;2.30;;
79371;SDS011;68914;51.262;6.802;2023-05-29T05:20:17;12.03;;;2.20;;
79371;SDS011;68914;51.262;6.802;2023-05-29T05:21:21;12.10;;;2.40;;
79371;SDS011;68914;51.262;6.802;2023-05-29T05:22:22;9.77;;;2.28;;
79371;SDS011;68914;51.262;6.802;2023-05-29T05:23:24;12.02;;;2.63;;
79371;SDS011;68914;51.262;6.802;2023-05-29T05:24:25;10.40;;;2.60;;
79371;SDS011;68914;51.262;6.802;2023-05-29T05:25:26;9.93;;;2.50;;
79371;SDS011;68914;51.262;6.802;2023-05-29T05:26:27;13.77;;;2.10;;
79371;SDS011;68914;51.262;6.802;2023-05-29T05:27:28;9.00;;;2.08;;
79371;SDS011;68914;51.262;6.802;2023-05-29T05:28:29;13.88;;;2.60;;
79371;SDS011;68914;51.262;6.802;2023-05-29T05:29:30;11.05;;;2.47;;
79371;SDS011;68914;51.262;6.802;2023-05-29T05:30:32;9.68;;;2.15;;
79371;SDS011;68914;51.262;6.802;2023-05-29T05:31:33;11.50;;;2.50;;
79371;SDS011;68914;51.262;6.802;2023-05-29T05:32:34;12.47;;;2.20;;
79371;SDS011;68914;51.262;6.802;2023-05-29T05:33:40;8.93;;;2.00;;
79371;SDS011;68914;51.262;6.802;2023-05-29T05:34:40;10.60;;;2.53;;
79371;SDS011;68914;51.262;6.802;2023-05-29T05:35:42;9.32;;;2.42;;
79371;SDS011;68914;51.262;6.802;2023-05-29T05:36:43;10.80;;;2.40;;
79371;SDS011;68914;51.262;6.802;2023-05-29T05:37:47;12.27;;;2.25;;
79371;SDS011;68914;51.262;6.802;2023-05-29T05:38:48;11.27;;;2.60;;
79371;SDS011;68914;51.262;6.802;2023-05-29T05:39:50;10.57;;;2.40;;
79371;SDS011;68914;51.262;6.802;2023-05-29T05:40:51;12.90;;;2.58;;
79371;SDS011;68914;51.262;6.802;2023-05-29T05:41:58;12.13;;;2.60;;
79371;SDS011;68914;51.262;6.802;2023-05-29T05:43:22;8.90;;;2.38;;
79371;SDS011;68914;51.262;6.802;2023-05-29T05:44:41;9.05;;;2.35;;
79371;SDS011;68914;51.262;6.802;2023-05-29T05:45:45;13.48;;;2.72;;
79371;SDS011;68914;51.262;6.802;2023-05-29T05:46:46;10.53;;;2.30;;
79371;SDS011;68914;51.262;6.802;2023-05-29T05:47:48;10.85;;;2.40;;
79371;SDS011;68914;51.262;6.802;2023-05-29T05:48:49;10.35;;;2.10;;
79371;SDS011;68914;51.262;6.802;2023-05-29T05:49:51;11.35;;;2.33;;
79371;SDS011;68914;51.262;6.802;2023-05-29T05:50:52;10.80;;;2.10;;
79371;SDS011;68914;51.262;6.802;2023-05-29T05:51:53;10.65;;;2.10;;
79371;SDS011;68914;51.262;6.802;2023-05-29T05:52:53;11.07;;;2.10;;
79371;SDS011;68914;51.262;6.802;2023-05-29T05:53:54;8.73;;;2.20;;
79371;SDS011;68914;51.262;6.802;2023-05-29T05:54:55;10.13;;;2.30;;
79371;SDS011;68914;51.262;6.802;2023-05-29T05:55:56;12.32;;;2.50;;
79371;SDS011;68914;51.262;6.802;2023-05-29T05:56:57;8.63;;;2.08;;
79371;SDS011;68914;51.262;6.802;2023-05-29T05:59:24;11.80;;;2.40;;
79371;SDS011;68914;51.262;6.802;2023-05-29T06:00:27;12.57;;;2.88;;
79371;SDS011;68914;51.262;6.802;2023-05-29T06:01:31;10.90;;;2.47;;
79371;SDS011;68914;51.262;6.802;2023-05-29T06:02:33;11.18;;;2.60;;
79371;SDS011;68914;51.262;6.802;2023-05-29T06:03:35;9.30;;;2.40;;
79371;SDS011;68914;51.262;6.802;2023-05-29T06:04:40;11.77;;;2.15;;
79371;SDS011;68914;51.262;6.802;2023-05-29T06:05:43;9.98;;;2.50;;
79371;SDS011;68914;51.262;6.802;2023-05-29T06:06:44;8.47;;;1.90;;
79371;SDS011;68914;51.262;6.802;2023-05-29T06:07:45;11.18;;;2.47;;
79371;SDS011;68914;51.262;6.802;2023-05-29T06:08:46;8.77;;;2.47;;
79371;SDS011;68914;51.262;6.802;2023-05-29T06:09:48;9.15;;;2.20;;
79371;SDS011;68914;51.262;6.802;2023-05-29T06:10:50;10.80;;;2.63;;
79371;SDS011;68914;51.262;6.802;2023-05-29T06:11:50;12.45;;;2.40;;
79371;SDS011;68914;51.262;6.802;2023-05-29T06:12:51;10.63;;;2.30;;
79371;SDS011;68914;51.262;6.802;2023-05-29T06:13:58;9.45;;;2.47;;
79371;SDS011;68914;51.262;6.802;2023-05-29T06:15:03;9.52;;;2.17;;
79371;SDS011;68914;51.262;6.802;2023-05-29T06:16:04;10.65;;;2.20;;
79371;SDS011;68914;51.262;6.802;2023-05-29T06:17:05;11.38;;;2.35;;